createdAt,value
2019-05-23T00:00:30.698Z,13.20
2019-05-23T00:03:00.428Z,13.00
2019-05-23T00:05:36.007Z,13.27
2019-05-23T00:08:18.557Z,13.47
2019-05-23T00:10:57.304Z,11.73
2019-05-23T00:13:43.349Z,13.00
2019-05-23T00:16:12.965Z,12.97
2019-05-23T00:18:42.739Z,12.47
2019-05-23T00:21:12.152Z,12.40
2019-05-23T00:23:42.530Z,12.87
2019-05-23T00:26:12.802Z,13.10
2019-05-23T00:28:42.355Z,12.60
2019-05-23T00:31:23.165Z,12.27
2019-05-23T00:33:52.951Z,12.77
2019-05-23T00:36:24.676Z,12.27
2019-05-23T00:38:54.451Z,12.60
2019-05-23T00:41:25.210Z,14.00
2019-05-23T00:43:55.191Z,12.87
2019-05-23T00:46:24.675Z,11.70
2019-05-23T00:48:55.688Z,12.97
2019-05-23T00:51:25.834Z,12.60
2019-05-23T00:53:56.360Z,12.77
2019-05-23T00:56:26.323Z,13.87
2019-05-23T00:58:56.310Z,13.23
2019-05-23T01:01:27.007Z,13.23
2019-05-23T01:03:56.702Z,13.63
2019-05-23T01:06:26.829Z,12.87
2019-05-23T01:08:57.273Z,13.23
2019-05-23T01:11:26.761Z,14.53
2019-05-23T01:13:58.022Z,13.70
2019-05-23T01:16:29.939Z,13.00
2019-05-23T01:18:59.977Z,13.13
2019-05-23T01:21:44.063Z,12.93
2019-05-23T01:24:20.869Z,11.93
2019-05-23T01:26:50.627Z,13.60
2019-05-23T01:29:22.330Z,13.53
2019-05-23T01:31:54.270Z,13.13
2019-05-23T01:34:26.975Z,12.53
2019-05-23T01:36:57.051Z,13.53
2019-05-23T01:39:26.550Z,14.40
2019-05-23T01:41:56.615Z,14.30
2019-05-23T01:44:26.515Z,15.30
2019-05-23T01:46:55.816Z,15.23
2019-05-23T01:49:25.291Z,15.03
2019-05-23T01:51:56.821Z,14.77
2019-05-23T01:54:27.330Z,13.67
2019-05-23T01:56:56.811Z,13.27
2019-05-23T01:59:26.088Z,14.63
2019-05-23T02:01:56.753Z,13.07
2019-05-23T02:04:26.042Z,14.00
2019-05-23T02:06:55.477Z,13.67
2019-05-23T02:09:24.917Z,13.57
2019-05-23T02:11:54.864Z,13.83
2019-05-23T02:14:24.791Z,13.73
2019-05-23T02:16:56.223Z,14.00
2019-05-23T02:19:26.112Z,14.93
2019-05-23T02:21:56.851Z,13.97
2019-05-23T02:24:26.808Z,13.90
2019-05-23T02:26:56.307Z,13.40
2019-05-23T02:29:26.070Z,12.33
2019-05-23T02:31:56.319Z,11.87
2019-05-23T02:34:25.651Z,12.43
2019-05-23T02:36:57.400Z,10.97
2019-05-23T02:39:53.253Z,8.47
2019-05-23T02:42:28.254Z,10.27
2019-05-23T02:44:58.229Z,9.33
2019-05-23T02:47:42.096Z,9.10
2019-05-23T02:50:18.482Z,7.50
2019-05-23T02:52:51.220Z,6.20
2019-05-23T02:55:28.435Z,6.17
2019-05-23T02:58:04.236Z,6.40
2019-05-23T03:01:00.404Z,7.10
2019-05-23T03:03:32.910Z,5.73
2019-05-23T03:06:04.476Z,6.67
2019-05-23T03:08:35.570Z,6.00
2019-05-23T03:11:17.468Z,5.70
2019-05-23T03:13:48.221Z,5.57
2019-05-23T03:16:22.030Z,6.50
2019-05-23T03:18:57.896Z,6.60
2019-05-23T03:21:28.667Z,6.57
2019-05-23T03:23:58.943Z,6.97
2019-05-23T03:27:01.374Z,6.60
2019-05-23T03:29:33.429Z,6.33
2019-05-23T03:32:22.053Z,6.93
2019-05-23T03:34:57.648Z,7.57
2019-05-23T03:37:27.440Z,7.00
2019-05-23T03:39:57.267Z,7.10
2019-05-23T03:42:27.546Z,7.40
2019-05-23T03:44:57.697Z,7.27
2019-05-23T03:47:27.742Z,7.87
2019-05-23T03:49:58.593Z,7.80
2019-05-23T03:52:30.027Z,7.97
2019-05-23T03:55:00.959Z,7.97
2019-05-23T03:57:32.310Z,7.47
2019-05-23T04:00:03.041Z,6.63
2019-05-23T04:02:32.952Z,7.07
2019-05-23T04:05:02.815Z,8.67
2019-05-23T04:07:33.467Z,9.23
2019-05-23T04:10:02.856Z,8.77
2019-05-23T04:12:32.821Z,8.47
2019-05-23T04:15:02.791Z,8.30
2019-05-23T04:17:32.634Z,9.27
2019-05-23T04:20:03.527Z,7.97
2019-05-23T04:22:33.268Z,7.80
2019-05-23T04:25:02.869Z,8.43
2019-05-23T04:27:32.525Z,7.30
2019-05-23T04:30:01.842Z,8.10
2019-05-23T04:32:31.225Z,7.77
2019-05-23T04:35:00.775Z,7.97
2019-05-23T04:37:30.670Z,7.80
2019-05-23T04:40:01.160Z,7.27
2019-05-23T04:42:30.704Z,7.30
2019-05-23T04:44:59.991Z,7.63
2019-05-23T04:47:29.662Z,8.20
2019-05-23T04:49:59.079Z,7.80
2019-05-23T04:52:28.723Z,8.80
2019-05-23T04:54:58.602Z,8.10
2019-05-23T04:57:28.186Z,8.00
2019-05-23T04:59:57.714Z,8.27
2019-05-23T05:02:29.086Z,7.80
2019-05-23T05:04:59.724Z,8.33
2019-05-23T05:07:29.983Z,8.57
2019-05-23T05:10:00.433Z,7.80
2019-05-23T05:12:30.897Z,7.70
2019-05-23T05:15:00.958Z,8.20
2019-05-23T05:17:30.956Z,8.50
2019-05-23T05:20:02.381Z,8.13
2019-05-23T05:22:33.363Z,8.37
2019-05-23T05:25:03.567Z,7.73
2019-05-23T05:27:33.004Z,8.60
2019-05-23T05:30:02.569Z,8.10
2019-05-23T05:32:44.331Z,10.37
2019-05-23T05:35:04.667Z,9.37
2019-05-23T05:37:34.222Z,8.73
2019-05-23T05:40:04.528Z,9.60
2019-05-23T05:42:34.106Z,9.27
2019-05-23T05:45:06.245Z,9.90
2019-05-23T05:47:36.785Z,9.73
2019-05-23T05:50:07.654Z,11.00
2019-05-23T05:52:37.506Z,11.53
2019-05-23T05:55:07.610Z,14.33
2019-05-23T05:57:37.396Z,13.70
2019-05-23T06:00:13.022Z,14.90
2019-05-23T06:02:42.713Z,14.93
2019-05-23T06:05:16.718Z,15.20
2019-05-23T06:07:46.680Z,15.07
2019-05-23T06:10:16.585Z,14.07
2019-05-23T06:12:46.120Z,15.63
2019-05-23T06:15:15.605Z,15.43
2019-05-23T06:17:45.108Z,14.87
2019-05-23T06:20:15.198Z,14.73
2019-05-23T06:22:45.019Z,14.00
2019-05-23T06:25:14.996Z,12.67
2019-05-23T06:27:45.666Z,13.57
2019-05-23T06:30:17.374Z,13.63
2019-05-23T06:32:47.061Z,13.27
2019-05-23T06:35:16.358Z,13.23
2019-05-23T06:37:45.646Z,12.60
2019-05-23T06:40:15.381Z,12.20
2019-05-23T06:42:44.753Z,13.13
2019-05-23T06:45:15.736Z,12.70
2019-05-23T06:47:45.005Z,14.07
2019-05-23T06:50:17.585Z,13.57
2019-05-23T06:52:46.853Z,15.40
2019-05-23T06:55:17.197Z,15.87
2019-05-23T06:57:47.572Z,14.37
2019-05-23T07:00:20.900Z,15.93
2019-05-23T07:02:50.356Z,14.67
2019-05-23T07:05:22.673Z,13.70
2019-05-23T07:07:52.082Z,15.23
2019-05-23T07:10:23.186Z,13.90
2019-05-23T07:12:52.581Z,13.47
2019-05-23T07:15:21.869Z,13.47
2019-05-23T07:17:51.182Z,11.33
2019-05-23T07:20:21.207Z,10.27
2019-05-23T07:22:50.498Z,10.00
2019-05-23T07:25:20.100Z,9.03
2019-05-23T07:27:50.502Z,9.78
2019-05-23T07:30:23.698Z,10.00
2019-05-23T07:32:53.309Z,10.03
2019-05-23T07:35:23.812Z,9.35
2019-05-23T07:37:53.090Z,8.80
2019-05-23T07:40:24.732Z,8.30
2019-05-23T07:42:54.668Z,6.92
2019-05-23T07:45:28.455Z,8.10
2019-05-23T07:47:57.899Z,6.80
2019-05-23T07:50:27.311Z,7.25
2019-05-23T07:52:58.014Z,7.22
2019-05-23T07:55:35.880Z,7.42
2019-05-23T07:58:05.173Z,6.72
2019-05-23T08:00:37.375Z,7.53
2019-05-23T08:03:08.306Z,6.97
2019-05-23T08:05:37.581Z,6.60
2019-05-23T08:08:08.203Z,5.92
2019-05-23T08:10:37.651Z,5.75
2019-05-23T08:13:07.153Z,4.97
2019-05-23T08:15:37.024Z,4.80
2019-05-23T08:18:06.724Z,5.28
2019-05-23T08:20:36.020Z,4.90
2019-05-23T08:23:05.422Z,4.83
2019-05-23T08:25:36.361Z,3.40
2019-05-23T08:28:07.630Z,3.92
2019-05-23T08:30:37.093Z,3.70
2019-05-23T08:33:09.197Z,4.47
2019-05-23T08:35:39.406Z,4.55
2019-05-23T08:38:08.827Z,5.10
2019-05-23T08:40:38.957Z,4.53
2019-05-23T08:43:08.689Z,4.87
2019-05-23T08:45:38.208Z,4.87
2019-05-23T08:48:07.583Z,4.30
2019-05-23T08:50:37.580Z,4.37
2019-05-23T08:53:08.285Z,4.60
2019-05-23T08:55:39.427Z,3.75
2019-05-23T08:58:10.499Z,3.98
2019-05-23T09:00:40.651Z,4.40
2019-05-23T09:03:11.555Z,4.92
2019-05-23T09:05:41.574Z,4.87
2019-05-23T09:08:11.423Z,5.53
2019-05-23T09:10:40.856Z,5.15
2019-05-23T09:13:11.421Z,5.62
2019-05-23T09:15:40.917Z,6.25
2019-05-23T09:18:10.226Z,5.72
2019-05-23T09:20:39.598Z,5.53
2019-05-23T09:23:09.078Z,4.78
2019-05-23T09:25:38.569Z,5.12
2019-05-23T09:28:08.070Z,4.22
2019-05-23T09:30:38.353Z,4.20
2019-05-23T09:33:08.461Z,4.70
2019-05-23T09:35:37.721Z,3.85
2019-05-23T09:38:07.300Z,4.30
2019-05-23T09:40:37.066Z,4.10
2019-05-23T09:43:07.293Z,5.12
2019-05-23T09:45:36.676Z,4.75
2019-05-23T09:48:05.984Z,4.65
2019-05-23T09:50:35.754Z,5.30
2019-05-23T09:53:06.504Z,4.78
2019-05-23T09:55:36.903Z,5.62
2019-05-23T09:58:06.233Z,5.08
2019-05-23T10:00:36.796Z,4.00
2019-05-23T10:03:06.529Z,4.10
2019-05-23T10:05:43.604Z,4.90
2019-05-23T10:08:07.415Z,4.83
2019-05-23T10:10:37.172Z,4.45
2019-05-23T10:13:06.782Z,4.30
2019-05-23T10:15:44.457Z,4.37
2019-05-23T10:18:18.049Z,5.58
2019-05-23T10:20:47.324Z,5.80
2019-05-23T10:23:16.663Z,4.85
2019-05-23T10:25:46.654Z,5.42
2019-05-23T10:28:16.582Z,5.25
2019-05-23T10:30:47.013Z,5.33
2019-05-23T10:33:16.327Z,4.55
2019-05-23T10:35:59.745Z,4.65
2019-05-23T10:38:16.825Z,5.72
2019-05-23T10:40:46.454Z,4.30
2019-05-23T10:43:15.737Z,5.47
2019-05-23T10:45:46.501Z,5.28
2019-05-23T10:48:17.432Z,4.28
2019-05-23T10:50:46.706Z,4.47
2019-05-23T10:53:15.987Z,4.42
2019-05-23T10:55:46.461Z,3.80
2019-05-23T10:58:17.058Z,4.87
2019-05-23T11:00:47.115Z,3.80
2019-05-23T11:03:17.446Z,4.37
2019-05-23T11:05:46.968Z,4.72
2019-05-23T11:08:16.823Z,4.87
2019-05-23T11:10:46.840Z,4.27
2019-05-23T11:13:16.161Z,5.20
2019-05-23T11:15:47.318Z,5.40
2019-05-23T11:18:17.340Z,4.77
2019-05-23T11:20:46.857Z,3.93
2019-05-23T11:23:23.496Z,3.80
2019-05-23T11:25:53.248Z,4.27
2019-05-23T11:28:23.120Z,4.10
2019-05-23T11:30:55.393Z,4.57
2019-05-23T11:33:25.306Z,4.50
2019-05-23T11:35:55.224Z,4.43
2019-05-23T11:38:24.967Z,4.33
2019-05-23T11:40:54.369Z,3.93
2019-05-23T11:43:23.622Z,4.27
2019-05-23T11:46:15.146Z,4.20
2019-05-23T11:48:44.592Z,5.07
2019-05-23T11:51:14.248Z,4.80
2019-05-23T11:53:46.991Z,3.60
2019-05-23T11:56:14.746Z,3.93
2019-05-23T11:58:45.848Z,5.03
2019-05-23T12:01:24.051Z,4.40
2019-05-23T12:04:11.559Z,4.17
2019-05-23T12:06:55.540Z,3.70
2019-05-23T12:09:21.318Z,3.43
2019-05-23T12:11:51.814Z,3.53
2019-05-23T12:14:21.134Z,4.20
2019-05-23T12:16:51.196Z,5.20
2019-05-23T12:19:21.125Z,3.90
2019-05-23T12:21:50.571Z,4.53
2019-05-23T12:24:20.245Z,4.27
2019-05-23T12:26:49.682Z,3.57
2019-05-23T12:29:19.203Z,4.13
2019-05-23T12:31:49.749Z,4.27
2019-05-23T12:34:19.256Z,5.10
2019-05-23T12:36:48.572Z,4.73
2019-05-23T12:39:17.870Z,4.10
2019-05-23T12:41:47.199Z,3.87
2019-05-23T12:44:17.795Z,3.53
2019-05-23T12:46:47.537Z,3.47
2019-05-23T12:49:45.695Z,3.23
2019-05-23T12:52:22.827Z,2.60
2019-05-23T12:54:58.988Z,3.20
2019-05-23T12:57:48.459Z,2.60
2019-05-23T13:00:50.884Z,3.97
2019-05-23T13:03:26.993Z,2.50
2019-05-23T13:06:06.291Z,2.93
2019-05-23T13:08:50.787Z,2.60
2019-05-23T13:11:24.992Z,2.60
2019-05-23T13:14:02.160Z,2.73
2019-05-23T13:16:43.815Z,3.23
2019-05-23T13:19:25.419Z,4.70
2019-05-23T13:22:00.784Z,3.50
2019-05-23T13:24:51.152Z,3.43
2019-05-23T13:27:21.724Z,4.23
2019-05-23T13:29:51.286Z,3.13
2019-05-23T13:32:21.235Z,4.47
2019-05-23T13:34:50.506Z,3.83
2019-05-23T13:37:19.979Z,3.20
2019-05-23T13:39:49.649Z,2.47
2019-05-23T13:42:18.958Z,3.50
2019-05-23T13:44:49.033Z,3.17
2019-05-23T13:47:18.604Z,2.17
2019-05-23T13:49:47.906Z,2.23
2019-05-23T13:52:17.278Z,2.83
2019-05-23T13:54:46.755Z,2.40
2019-05-23T13:57:16.487Z,2.50
2019-05-23T13:59:45.799Z,2.80
2019-05-23T14:02:15.345Z,2.90
2019-05-23T14:04:45.007Z,3.90
2019-05-23T14:07:14.851Z,2.73
2019-05-23T14:09:44.425Z,2.87
2019-05-23T14:12:21.973Z,2.73
2019-05-23T14:14:44.802Z,2.87
2019-05-23T14:17:29.177Z,2.93
2019-05-23T14:19:58.469Z,2.67
2019-05-23T14:22:28.742Z,2.97
2019-05-23T14:24:58.067Z,2.80
2019-05-23T14:27:55.663Z,2.53
2019-05-23T14:30:44.769Z,2.23
2019-05-23T14:33:48.173Z,2.60
2019-05-23T14:36:25.667Z,2.10
2019-05-23T14:38:56.859Z,2.97
2019-05-23T14:41:43.762Z,3.13
2019-05-23T14:43:58.886Z,2.70
2019-05-23T14:46:32.109Z,2.03
2019-05-23T14:49:13.602Z,3.27
2019-05-23T14:51:56.439Z,2.20
2019-05-23T14:54:47.105Z,2.47
2019-05-23T14:57:16.815Z,2.77
2019-05-23T14:59:46.559Z,3.27
2019-05-23T15:02:19.408Z,2.97
2019-05-23T15:04:48.710Z,2.70
2019-05-23T15:07:17.988Z,2.17
2019-05-23T15:09:47.282Z,2.33
2019-05-23T15:12:18.413Z,3.73
2019-05-23T15:14:47.838Z,4.17
2019-05-23T15:17:17.173Z,2.93
2019-05-23T15:19:46.672Z,3.33
2019-05-23T15:22:16.040Z,3.03
2019-05-23T15:24:45.543Z,2.13
2019-05-23T15:27:15.364Z,3.00
2019-05-23T15:29:44.618Z,2.13
2019-05-23T15:32:13.992Z,1.70
2019-05-23T15:34:43.320Z,2.00
2019-05-23T15:37:13.419Z,1.63
2019-05-23T15:39:42.848Z,1.80
2019-05-23T15:42:12.319Z,2.10
2019-05-23T15:44:41.671Z,2.00
2019-05-23T15:47:10.941Z,1.90
2019-05-23T15:49:41.938Z,2.00
2019-05-23T15:52:32.823Z,1.73
2019-05-23T15:55:07.662Z,2.10
2019-05-23T15:57:47.362Z,2.60
2019-05-23T16:00:34.575Z,2.10
2019-05-23T16:03:31.479Z,2.63
2019-05-23T16:06:02.501Z,2.40
2019-05-23T16:08:32.074Z,1.90
2019-05-23T16:11:01.487Z,2.30
2019-05-23T16:13:30.884Z,7.43
2019-05-23T16:16:00.179Z,2.93
2019-05-23T16:18:29.591Z,3.30
2019-05-23T16:20:58.885Z,4.13
2019-05-23T16:23:28.294Z,3.03
2019-05-23T16:25:57.565Z,4.03
2019-05-23T16:28:27.166Z,2.97
2019-05-23T16:30:56.908Z,6.63
2019-05-23T16:33:26.457Z,3.63
2019-05-23T16:35:55.736Z,3.53
2019-05-23T16:38:25.045Z,8.27
2019-05-23T16:40:54.327Z,4.80
2019-05-23T16:43:23.582Z,4.97
2019-05-23T16:45:53.092Z,3.67
2019-05-23T16:48:22.360Z,3.67
2019-05-23T16:50:51.697Z,3.20
2019-05-23T16:53:21.195Z,4.30
2019-05-23T16:55:59.269Z,3.50
2019-05-23T16:58:39.812Z,3.10
2019-05-23T17:01:24.432Z,4.20
2019-05-23T17:03:57.624Z,3.27
2019-05-23T17:06:38.693Z,4.03
2019-05-23T17:09:33.273Z,3.67
2019-05-23T17:12:20.427Z,5.77
2019-05-23T17:15:11.477Z,5.13
2019-05-23T17:18:01.179Z,3.80
2019-05-23T17:20:57.801Z,3.33
2019-05-23T17:23:53.475Z,3.07
2019-05-23T17:26:37.443Z,5.53
2019-05-23T17:29:13.686Z,2.90
2019-05-23T17:31:44.323Z,5.00
2019-05-23T17:34:13.915Z,2.83
2019-05-23T17:36:43.201Z,3.00
2019-05-23T17:39:14.836Z,1.70
2019-05-23T17:41:44.387Z,3.00
2019-05-23T17:44:13.780Z,2.40
2019-05-23T17:46:43.156Z,2.40
2019-05-23T17:49:12.461Z,2.63
2019-05-23T17:51:41.824Z,2.60
2019-05-23T17:54:15.382Z,3.57
2019-05-23T17:56:44.717Z,2.30
2019-05-23T17:59:14.139Z,2.20
2019-05-23T18:01:43.775Z,1.80
2019-05-23T18:04:15.200Z,2.00
2019-05-23T18:06:44.739Z,1.97
2019-05-23T18:09:16.069Z,2.00
2019-05-23T18:11:45.714Z,3.00
2019-05-23T18:14:15.573Z,2.77
2019-05-23T18:16:45.902Z,2.70
2019-05-23T18:19:15.573Z,3.10
2019-05-23T18:21:45.200Z,1.60
2019-05-23T18:24:16.563Z,1.77
2019-05-23T18:26:45.869Z,1.83
2019-05-23T18:29:16.888Z,2.20
2019-05-23T18:31:46.961Z,1.70
2019-05-23T18:34:16.355Z,1.67
2019-05-23T18:36:46.133Z,1.90
2019-05-23T18:39:19.220Z,1.93
2019-05-23T18:41:48.897Z,2.07
2019-05-23T18:44:18.577Z,3.30
2019-05-23T18:46:52.228Z,1.70
2019-05-23T18:49:21.702Z,2.07
2019-05-23T18:51:52.810Z,1.53
2019-05-23T18:54:22.105Z,2.00
2019-05-23T18:56:51.600Z,1.73
2019-05-23T18:59:21.345Z,2.30
2019-05-23T19:01:52.333Z,1.90
2019-05-23T19:04:21.754Z,2.60
2019-05-23T19:06:52.910Z,1.90
2019-05-23T19:09:24.337Z,2.30
2019-05-23T19:11:57.035Z,3.60
2019-05-23T19:14:26.478Z,4.40
2019-05-23T19:16:56.594Z,3.93
2019-05-23T19:19:26.769Z,2.90
2019-05-23T19:21:57.164Z,2.03
2019-05-23T19:24:28.779Z,3.07
2019-05-23T19:27:00.840Z,3.10
2019-05-23T19:29:33.844Z,3.33
2019-05-23T19:32:08.689Z,3.17
2019-05-23T19:34:40.640Z,3.13
2019-05-23T19:37:12.294Z,2.67
2019-05-23T19:39:43.831Z,3.00
2019-05-23T19:42:15.600Z,3.33
2019-05-23T19:44:46.999Z,2.93
2019-05-23T19:47:38.266Z,2.50
2019-05-23T19:50:10.216Z,3.03
2019-05-23T19:52:40.748Z,3.27
2019-05-23T19:55:12.074Z,3.53
2019-05-23T19:57:42.870Z,4.13
2019-05-23T20:00:15.407Z,4.00
2019-05-23T20:02:53.476Z,3.47
2019-05-23T20:05:29.821Z,4.23
2019-05-23T20:07:59.155Z,4.40
2019-05-23T20:10:30.306Z,5.00
2019-05-23T20:13:01.797Z,4.90
2019-05-23T20:15:32.287Z,4.73
2019-05-23T20:18:02.275Z,5.47
2019-05-23T20:20:34.119Z,5.53
2019-05-23T20:23:03.636Z,5.60
2019-05-23T20:25:33.446Z,5.23
2019-05-23T20:28:02.762Z,4.70
2019-05-23T20:31:04.745Z,5.37
2019-05-23T20:33:34.703Z,6.83
2019-05-23T20:36:11.419Z,5.63
2019-05-23T20:38:38.307Z,6.00
2019-05-23T20:41:08.093Z,5.60
2019-05-23T20:43:38.226Z,6.10
2019-05-23T20:46:08.031Z,6.57
2019-05-23T20:48:38.818Z,5.50
2019-05-23T20:51:08.752Z,6.20
2019-05-23T20:53:38.783Z,6.10
2019-05-23T20:56:08.422Z,6.40
2019-05-23T20:58:57.355Z,6.90
2019-05-23T21:01:36.943Z,6.77
2019-05-23T21:04:07.089Z,5.70
2019-05-23T21:06:36.375Z,7.00
2019-05-23T21:09:08.119Z,5.07
2019-05-23T21:11:37.578Z,5.53
2019-05-23T21:14:06.860Z,4.83
2019-05-23T21:16:36.181Z,5.10
2019-05-23T21:19:05.584Z,5.00
2019-05-23T21:21:34.894Z,4.70
2019-05-23T21:24:04.613Z,4.40
2019-05-23T21:26:34.418Z,4.73
2019-05-23T21:29:03.961Z,4.13
2019-05-23T21:31:33.396Z,4.07
2019-05-23T21:34:03.207Z,4.20
2019-05-23T21:36:33.052Z,4.77
2019-05-23T21:39:02.381Z,4.00
2019-05-23T21:41:32.711Z,4.67
2019-05-23T21:44:02.218Z,5.07
2019-05-23T21:46:32.066Z,5.27
2019-05-23T21:49:01.565Z,4.97
2019-05-23T21:51:31.192Z,5.37
2019-05-23T21:54:00.881Z,4.90
2019-05-23T21:56:30.549Z,4.97
2019-05-23T21:59:00.213Z,4.83
2019-05-23T22:01:47.259Z,5.10
2019-05-23T22:04:44.914Z,4.63
2019-05-23T22:07:14.698Z,4.93
2019-05-23T22:09:44.672Z,4.63
2019-05-23T22:12:15.579Z,4.93
2019-05-23T22:14:46.650Z,4.90
2019-05-23T22:17:17.048Z,4.83
2019-05-23T22:19:46.752Z,4.63
2019-05-23T22:22:17.565Z,5.27
2019-05-23T22:24:47.134Z,4.93
2019-05-23T22:27:16.890Z,4.97
2019-05-23T22:29:47.579Z,5.00
2019-05-23T22:32:19.137Z,5.10
2019-05-23T22:34:54.858Z,5.30
2019-05-23T22:37:25.857Z,4.77
2019-05-23T22:39:55.129Z,5.00
2019-05-23T22:42:26.851Z,4.70
2019-05-23T22:44:56.161Z,5.40
2019-05-23T22:47:25.618Z,4.97
2019-05-23T22:49:55.121Z,5.00
2019-05-23T22:52:24.420Z,4.97
2019-05-23T22:54:53.726Z,5.17
2019-05-23T22:57:24.797Z,5.07
2019-05-23T22:59:54.094Z,4.60
2019-05-23T23:02:23.392Z,5.07
2019-05-23T23:04:52.893Z,5.20
2019-05-23T23:07:22.272Z,4.33
2019-05-23T23:09:51.542Z,4.80
2019-05-23T23:12:20.829Z,5.50
2019-05-23T23:14:50.138Z,5.53
2019-05-23T23:17:20.016Z,4.90
2019-05-23T23:19:49.289Z,5.10
2019-05-23T23:22:20.089Z,5.20
2019-05-23T23:24:49.470Z,5.33
2019-05-23T23:27:18.778Z,5.60
2019-05-23T23:29:49.715Z,5.20
2019-05-23T23:32:19.038Z,5.13
2019-05-23T23:34:48.306Z,5.13
2019-05-23T23:37:17.615Z,5.83
2019-05-23T23:39:46.887Z,5.50
2019-05-23T23:42:16.377Z,5.87
2019-05-23T23:44:44.916Z,5.83
2019-05-23T23:47:32.833Z,5.37
2019-05-23T23:50:19.701Z,6.30
2019-05-23T23:53:07.474Z,6.10
2019-05-23T23:55:54.612Z,5.80
2019-05-23T23:58:22.978Z,5.50
